sensor_id;sensor_type;location;lat;lon;timestamp;temperature;humidity
10660;DHT22;5378;53.206;13.316;2022-11-21T00:00:49;2.60;99.90
10660;DHT22;5378;53.206;13.316;2022-11-21T00:03:36;2.60;99.90
10660;DHT22;5378;53.206;13.316;2022-11-21T00:06:23;2.60;99.90
10660;DHT22;5378;53.206;13.316;2022-11-21T00:09:10;2.50;99.90
10660;DHT22;5378;53.206;13.316;2022-11-21T00:11:57;2.60;99.90
10660;DHT22;5378;53.206;13.316;2022-11-21T00:14:46;2.60;99.90
10660;DHT22;5378;53.206;13.316;2022-11-21T00:17:33;2.60;99.90
10660;DHT22;5378;53.206;13.316;2022-11-21T00:20:21;2.50;99.90
10660;DHT22;5378;53.206;13.316;2022-11-21T00:23:08;2.50;99.90
10660;DHT22;5378;53.206;13.316;2022-11-21T00:25:55;2.50;99.90
10660;DHT22;5378;53.206;13.316;2022-11-21T00:28:43;2.60;99.90
10660;DHT22;5378;53.206;13.316;2022-11-21T00:31:31;2.50;99.90
10660;DHT22;5378;53.206;13.316;2022-11-21T00:34:18;2.50;99.90
10660;DHT22;5378;53.206;13.316;2022-11-21T00:37:05;2.50;99.90
10660;DHT22;5378;53.206;13.316;2022-11-21T00:39:52;2.50;99.90
10660;DHT22;5378;53.206;13.316;2022-11-21T00:42:40;2.60;99.90
10660;DHT22;5378;53.206;13.316;2022-11-21T00:45:27;2.50;99.90
10660;DHT22;5378;53.206;13.316;2022-11-21T00:48:15;2.40;99.90
10660;DHT22;5378;53.206;13.316;2022-11-21T00:51:03;2.40;99.90
10660;DHT22;5378;53.206;13.316;2022-11-21T00:53:50;2.40;99.90
10660;DHT22;5378;53.206;13.316;2022-11-21T00:56:37;2.30;99.90
10660;DHT22;5378;53.206;13.316;2022-11-21T00:59:24;2.30;99.90
10660;DHT22;5378;53.206;13.316;2022-11-21T01:02:11;2.20;99.90
10660;DHT22;5378;53.206;13.316;2022-11-21T01:05:00;2.10;99.90
10660;DHT22;5378;53.206;13.316;2022-11-21T01:07:47;2.20;99.90
10660;DHT22;5378;53.206;13.316;2022-11-21T01:10:34;2.20;99.90
10660;DHT22;5378;53.206;13.316;2022-11-21T01:13:21;2.10;99.90
10660;DHT22;5378;53.206;13.316;2022-11-21T01:16:10;2.00;99.90
10660;DHT22;5378;53.206;13.316;2022-11-21T01:18:57;1.90;99.90
10660;DHT22;5378;53.206;13.316;2022-11-21T01:21:46;1.90;99.90
10660;DHT22;5378;53.206;13.316;2022-11-21T01:24:33;1.90;99.90
10660;DHT22;5378;53.206;13.316;2022-11-21T01:27:20;1.90;99.90
10660;DHT22;5378;53.206;13.316;2022-11-21T01:30:08;1.90;99.90
10660;DHT22;5378;53.206;13.316;2022-11-21T01:32:56;1.80;99.90
10660;DHT22;5378;53.206;13.316;2022-11-21T01:35:43;1.60;99.90
10660;DHT22;5378;53.206;13.316;2022-11-21T01:38:33;1.60;99.90
10660;DHT22;5378;53.206;13.316;2022-11-21T01:41:22;1.50;99.90
10660;DHT22;5378;53.206;13.316;2022-11-21T01:44:15;1.50;99.90
10660;DHT22;5378;53.206;13.316;2022-11-21T01:47:03;1.40;99.90
10660;DHT22;5378;53.206;13.316;2022-11-21T01:49:51;1.30;99.90
10660;DHT22;5378;53.206;13.316;2022-11-21T01:52:39;1.30;99.90
10660;DHT22;5378;53.206;13.316;2022-11-21T01:55:27;1.30;99.90
10660;DHT22;5378;53.206;13.316;2022-11-21T01:58:14;1.20;99.90
10660;DHT22;5378;53.206;13.316;2022-11-21T02:01:02;1.10;99.90
10660;DHT22;5378;53.206;13.316;2022-11-21T02:03:51;1.10;99.90
10660;DHT22;5378;53.206;13.316;2022-11-21T02:06:39;1.00;99.90
10660;DHT22;5378;53.206;13.316;2022-11-21T02:09:26;0.90;99.90
10660;DHT22;5378;53.206;13.316;2022-11-21T02:12:20;0.90;99.90
10660;DHT22;5378;53.206;13.316;2022-11-21T02:15:10;1.00;99.90
10660;DHT22;5378;53.206;13.316;2022-11-21T02:17:57;1.00;99.90
10660;DHT22;5378;53.206;13.316;2022-11-21T02:20:48;1.10;99.90
10660;DHT22;5378;53.206;13.316;2022-11-21T02:23:40;1.20;99.90
10660;DHT22;5378;53.206;13.316;2022-11-21T02:26:31;1.40;99.90
10660;DHT22;5378;53.206;13.316;2022-11-21T02:29:19;1.50;99.90
10660;DHT22;5378;53.206;13.316;2022-11-21T02:32:06;1.50;99.90
10660;DHT22;5378;53.206;13.316;2022-11-21T02:34:53;1.50;99.90
10660;DHT22;5378;53.206;13.316;2022-11-21T02:37:40;1.60;99.90
10660;DHT22;5378;53.206;13.316;2022-11-21T02:40:32;1.70;99.90
10660;DHT22;5378;53.206;13.316;2022-11-21T02:43:23;1.70;99.90
10660;DHT22;5378;53.206;13.316;2022-11-21T02:46:11;1.70;99.90
10660;DHT22;5378;53.206;13.316;2022-11-21T02:48:59;1.70;99.90
10660;DHT22;5378;53.206;13.316;2022-11-21T02:51:47;1.80;99.90
10660;DHT22;5378;53.206;13.316;2022-11-21T02:54:34;1.90;99.90
10660;DHT22;5378;53.206;13.316;2022-11-21T02:57:21;1.90;99.90
10660;DHT22;5378;53.206;13.316;2022-11-21T03:00:11;2.00;99.90
10660;DHT22;5378;53.206;13.316;2022-11-21T03:02:58;1.90;99.90
10660;DHT22;5378;53.206;13.316;2022-11-21T03:05:45;2.00;99.90
10660;DHT22;5378;53.206;13.316;2022-11-21T03:08:33;1.90;99.90
10660;DHT22;5378;53.206;13.316;2022-11-21T03:11:20;1.80;99.90
10660;DHT22;5378;53.206;13.316;2022-11-21T03:14:07;1.80;99.90
10660;DHT22;5378;53.206;13.316;2022-11-21T03:16:55;1.80;99.90
10660;DHT22;5378;53.206;13.316;2022-11-21T03:19:43;1.80;99.90
10660;DHT22;5378;53.206;13.316;2022-11-21T03:22:30;1.90;99.90
10660;DHT22;5378;53.206;13.316;2022-11-21T03:25:17;2.00;99.90
10660;DHT22;5378;53.206;13.316;2022-11-21T03:28:04;2.00;99.90
10660;DHT22;5378;53.206;13.316;2022-11-21T03:30:51;2.10;99.90
10660;DHT22;5378;53.206;13.316;2022-11-21T03:33:40;2.10;99.90
10660;DHT22;5378;53.206;13.316;2022-11-21T03:36:27;2.00;99.90
10660;DHT22;5378;53.206;13.316;2022-11-21T03:39:14;2.10;99.90
10660;DHT22;5378;53.206;13.316;2022-11-21T03:42:01;2.10;99.90
10660;DHT22;5378;53.206;13.316;2022-11-21T03:44:48;2.10;99.90
10660;DHT22;5378;53.206;13.316;2022-11-21T03:47:35;2.00;99.90
10660;DHT22;5378;53.206;13.316;2022-11-21T03:50:24;2.10;99.90
10660;DHT22;5378;53.206;13.316;2022-11-21T03:53:11;2.10;99.90
10660;DHT22;5378;53.206;13.316;2022-11-21T03:55:58;2.00;99.90
10660;DHT22;5378;53.206;13.316;2022-11-21T03:58:45;2.00;99.90
10660;DHT22;5378;53.206;13.316;2022-11-21T04:01:32;2.10;99.90
10660;DHT22;5378;53.206;13.316;2022-11-21T04:04:21;2.10;99.90
10660;DHT22;5378;53.206;13.316;2022-11-21T04:07:09;2.10;99.90
10660;DHT22;5378;53.206;13.316;2022-11-21T04:09:56;2.10;99.90
10660;DHT22;5378;53.206;13.316;2022-11-21T04:12:43;2.00;99.90
10660;DHT22;5378;53.206;13.316;2022-11-21T04:15:30;2.10;99.90
10660;DHT22;5378;53.206;13.316;2022-11-21T04:18:17;2.10;99.90
10660;DHT22;5378;53.206;13.316;2022-11-21T04:21:06;2.00;99.90
10660;DHT22;5378;53.206;13.316;2022-11-21T04:23:55;1.90;99.90
10660;DHT22;5378;53.206;13.316;2022-11-21T04:26:42;2.00;99.90
10660;DHT22;5378;53.206;13.316;2022-11-21T04:29:29;2.10;99.90
10660;DHT22;5378;53.206;13.316;2022-11-21T04:32:16;2.10;99.90
10660;DHT22;5378;53.206;13.316;2022-11-21T04:35:04;2.10;99.90
10660;DHT22;5378;53.206;13.316;2022-11-21T04:37:51;2.00;99.90
10660;DHT22;5378;53.206;13.316;2022-11-21T04:40:41;2.00;99.90
10660;DHT22;5378;53.206;13.316;2022-11-21T04:43:29;2.00;99.90
10660;DHT22;5378;53.206;13.316;2022-11-21T04:46:16;1.90;99.90
10660;DHT22;5378;53.206;13.316;2022-11-21T04:49:03;1.90;99.90
10660;DHT22;5378;53.206;13.316;2022-11-21T04:51:50;2.00;99.90
10660;DHT22;5378;53.206;13.316;2022-11-21T04:54:37;1.90;99.90
10660;DHT22;5378;53.206;13.316;2022-11-21T04:57:26;2.00;99.90
10660;DHT22;5378;53.206;13.316;2022-11-21T05:00:14;2.00;99.90
10660;DHT22;5378;53.206;13.316;2022-11-21T05:03:06;2.00;99.90
10660;DHT22;5378;53.206;13.316;2022-11-21T05:05:53;2.00;99.90
10660;DHT22;5378;53.206;13.316;2022-11-21T05:08:40;2.00;99.90
10660;DHT22;5378;53.206;13.316;2022-11-21T05:11:29;1.90;99.90
10660;DHT22;5378;53.206;13.316;2022-11-21T05:14:34;1.90;99.90
10660;DHT22;5378;53.206;13.316;2022-11-21T05:17:22;1.90;99.90
10660;DHT22;5378;53.206;13.316;2022-11-21T05:20:10;1.80;99.90
10660;DHT22;5378;53.206;13.316;2022-11-21T05:22:57;1.80;99.90
10660;DHT22;5378;53.206;13.316;2022-11-21T05:25:44;1.90;99.90
10660;DHT22;5378;53.206;13.316;2022-11-21T05:28:31;1.90;99.90
10660;DHT22;5378;53.206;13.316;2022-11-21T05:31:19;1.90;99.90
10660;DHT22;5378;53.206;13.316;2022-11-21T05:34:06;1.90;99.90
10660;DHT22;5378;53.206;13.316;2022-11-21T05:36:53;1.90;99.90
10660;DHT22;5378;53.206;13.316;2022-11-21T05:39:42;1.90;99.90
10660;DHT22;5378;53.206;13.316;2022-11-21T05:42:29;1.90;99.90
10660;DHT22;5378;53.206;13.316;2022-11-21T05:45:34;1.80;99.90
10660;DHT22;5378;53.206;13.316;2022-11-21T05:48:22;1.80;99.90
10660;DHT22;5378;53.206;13.316;2022-11-21T05:51:09;2.00;99.90
10660;DHT22;5378;53.206;13.316;2022-11-21T05:53:58;2.00;99.90
10660;DHT22;5378;53.206;13.316;2022-11-21T05:56:45;1.90;99.90
10660;DHT22;5378;53.206;13.316;2022-11-21T05:59:32;1.90;99.90
10660;DHT22;5378;53.206;13.316;2022-11-21T06:02:19;1.90;99.90
10660;DHT22;5378;53.206;13.316;2022-11-21T06:05:25;1.90;99.90
10660;DHT22;5378;53.206;13.316;2022-11-21T06:08:12;1.90;99.90
10660;DHT22;5378;53.206;13.316;2022-11-21T06:11:01;1.90;99.90
10660;DHT22;5378;53.206;13.316;2022-11-21T06:13:48;2.00;99.90
10660;DHT22;5378;53.206;13.316;2022-11-21T06:16:36;2.00;99.90
10660;DHT22;5378;53.206;13.316;2022-11-21T06:19:23;2.10;99.90
10660;DHT22;5378;53.206;13.316;2022-11-21T06:22:11;2.10;99.90
10660;DHT22;5378;53.206;13.316;2022-11-21T06:24:58;2.10;99.90
10660;DHT22;5378;53.206;13.316;2022-11-21T06:27:45;2.10;99.90
10660;DHT22;5378;53.206;13.316;2022-11-21T06:30:33;2.10;99.90
10660;DHT22;5378;53.206;13.316;2022-11-21T06:33:20;2.10;99.90
10660;DHT22;5378;53.206;13.316;2022-11-21T06:36:09;2.10;99.90
10660;DHT22;5378;53.206;13.316;2022-11-21T06:38:58;2.10;99.90
10660;DHT22;5378;53.206;13.316;2022-11-21T06:41:45;2.10;99.90
10660;DHT22;5378;53.206;13.316;2022-11-21T06:44:35;2.20;99.90
10660;DHT22;5378;53.206;13.316;2022-11-21T06:47:22;2.20;99.90
10660;DHT22;5378;53.206;13.316;2022-11-21T06:50:09;2.10;99.90
10660;DHT22;5378;53.206;13.316;2022-11-21T06:52:57;2.10;99.90
10660;DHT22;5378;53.206;13.316;2022-11-21T06:55:46;2.10;99.90
10660;DHT22;5378;53.206;13.316;2022-11-21T06:58:33;2.10;99.90
10660;DHT22;5378;53.206;13.316;2022-11-21T07:01:21;2.10;99.90
10660;DHT22;5378;53.206;13.316;2022-11-21T07:04:08;2.20;99.90
10660;DHT22;5378;53.206;13.316;2022-11-21T07:06:55;2.20;99.90
10660;DHT22;5378;53.206;13.316;2022-11-21T07:09:43;2.10;99.90
10660;DHT22;5378;53.206;13.316;2022-11-21T07:12:34;2.10;99.90
10660;DHT22;5378;53.206;13.316;2022-11-21T07:15:39;2.10;99.90
10660;DHT22;5378;53.206;13.316;2022-11-21T07:18:26;2.20;99.90
10660;DHT22;5378;53.206;13.316;2022-11-21T07:21:13;2.20;99.90
10660;DHT22;5378;53.206;13.316;2022-11-21T07:24:00;2.20;99.90
10660;DHT22;5378;53.206;13.316;2022-11-21T07:26:48;2.20;99.90
10660;DHT22;5378;53.206;13.316;2022-11-21T07:29:36;2.10;99.90
10660;DHT22;5378;53.206;13.316;2022-11-21T07:32:24;2.20;99.90
10660;DHT22;5378;53.206;13.316;2022-11-21T07:35:11;2.20;99.90
10660;DHT22;5378;53.206;13.316;2022-11-21T07:37:59;2.20;99.90
10660;DHT22;5378;53.206;13.316;2022-11-21T07:40:45;2.20;99.90
10660;DHT22;5378;53.206;13.316;2022-11-21T07:43:33;2.20;99.90
10660;DHT22;5378;53.206;13.316;2022-11-21T07:46:21;2.30;99.90
10660;DHT22;5378;53.206;13.316;2022-11-21T07:49:08;2.40;99.90
10660;DHT22;5378;53.206;13.316;2022-11-21T07:51:55;2.40;99.90
10660;DHT22;5378;53.206;13.316;2022-11-21T07:54:42;2.40;99.90
10660;DHT22;5378;53.206;13.316;2022-11-21T07:57:30;2.40;99.90
10660;DHT22;5378;53.206;13.316;2022-11-21T08:00:17;2.50;99.90
10660;DHT22;5378;53.206;13.316;2022-11-21T08:03:06;2.40;99.90
10660;DHT22;5378;53.206;13.316;2022-11-21T08:05:53;2.40;99.90
10660;DHT22;5378;53.206;13.316;2022-11-21T08:08:40;2.50;99.90
10660;DHT22;5378;53.206;13.316;2022-11-21T08:11:28;2.50;99.90
10660;DHT22;5378;53.206;13.316;2022-11-21T08:14:15;2.50;99.90
10660;DHT22;5378;53.206;13.316;2022-11-21T08:17:03;2.50;99.90
10660;DHT22;5378;53.206;13.316;2022-11-21T08:19:52;2.50;99.90
10660;DHT22;5378;53.206;13.316;2022-11-21T08:22:39;2.50;99.90
10660;DHT22;5378;53.206;13.316;2022-11-21T08:25:26;2.60;99.90
10660;DHT22;5378;53.206;13.316;2022-11-21T08:28:13;2.70;99.90
10660;DHT22;5378;53.206;13.316;2022-11-21T08:31:02;2.70;99.90
10660;DHT22;5378;53.206;13.316;2022-11-21T08:33:49;2.80;99.90
10660;DHT22;5378;53.206;13.316;2022-11-21T08:36:42;2.80;99.90
10660;DHT22;5378;53.206;13.316;2022-11-21T08:39:28;2.80;99.90
10660;DHT22;5378;53.206;13.316;2022-11-21T08:42:16;2.80;99.90
10660;DHT22;5378;53.206;13.316;2022-11-21T08:45:03;2.80;99.90
10660;DHT22;5378;53.206;13.316;2022-11-21T08:47:51;2.80;99.90
10660;DHT22;5378;53.206;13.316;2022-11-21T08:50:38;2.80;99.90
10660;DHT22;5378;53.206;13.316;2022-11-21T08:53:26;2.90;99.90
10660;DHT22;5378;53.206;13.316;2022-11-21T08:56:13;2.90;99.90
10660;DHT22;5378;53.206;13.316;2022-11-21T08:59:01;2.90;99.90
10660;DHT22;5378;53.206;13.316;2022-11-21T09:01:48;3.00;99.90
10660;DHT22;5378;53.206;13.316;2022-11-21T09:04:35;3.10;99.90
10660;DHT22;5378;53.206;13.316;2022-11-21T09:07:22;3.10;99.90
10660;DHT22;5378;53.206;13.316;2022-11-21T09:10:11;3.00;99.90
10660;DHT22;5378;53.206;13.316;2022-11-21T09:12:58;3.00;99.90
10660;DHT22;5378;53.206;13.316;2022-11-21T09:15:45;3.00;99.90
10660;DHT22;5378;53.206;13.316;2022-11-21T09:18:51;2.90;99.90
10660;DHT22;5378;53.206;13.316;2022-11-21T09:21:40;3.00;99.90
10660;DHT22;5378;53.206;13.316;2022-11-21T09:24:27;3.10;99.90
10660;DHT22;5378;53.206;13.316;2022-11-21T09:27:15;3.30;99.90
10660;DHT22;5378;53.206;13.316;2022-11-21T09:30:03;3.30;99.90
10660;DHT22;5378;53.206;13.316;2022-11-21T09:32:50;3.30;99.90
10660;DHT22;5378;53.206;13.316;2022-11-21T09:35:37;3.40;99.90
10660;DHT22;5378;53.206;13.316;2022-11-21T09:38:25;3.40;99.90
10660;DHT22;5378;53.206;13.316;2022-11-21T09:41:23;3.50;99.90
10660;DHT22;5378;53.206;13.316;2022-11-21T09:44:56;3.60;99.90
10660;DHT22;5378;53.206;13.316;2022-11-21T09:47:47;3.70;99.90
10660;DHT22;5378;53.206;13.316;2022-11-21T09:50:37;3.60;99.90
10660;DHT22;5378;53.206;13.316;2022-11-21T09:53:29;3.40;99.90
10660;DHT22;5378;53.206;13.316;2022-11-21T09:56:17;3.20;99.90
10660;DHT22;5378;53.206;13.316;2022-11-21T09:59:17;3.00;99.90
10660;DHT22;5378;53.206;13.316;2022-11-21T10:02:13;3.00;99.90
10660;DHT22;5378;53.206;13.316;2022-11-21T10:05:01;3.20;99.90
10660;DHT22;5378;53.206;13.316;2022-11-21T10:07:49;3.30;99.90
10660;DHT22;5378;53.206;13.316;2022-11-21T10:10:49;3.30;99.90
10660;DHT22;5378;53.206;13.316;2022-11-21T10:13:46;3.40;99.90
10660;DHT22;5378;53.206;13.316;2022-11-21T10:16:42;3.40;99.90
10660;DHT22;5378;53.206;13.316;2022-11-21T10:19:48;3.40;99.90
10660;DHT22;5378;53.206;13.316;2022-11-21T10:22:52;3.40;99.90
10660;DHT22;5378;53.206;13.316;2022-11-21T10:25:52;3.60;99.90
10660;DHT22;5378;53.206;13.316;2022-11-21T10:28:46;3.70;99.90
10660;DHT22;5378;53.206;13.316;2022-11-21T10:31:36;3.90;99.90
10660;DHT22;5378;53.206;13.316;2022-11-21T10:34:28;4.00;99.90
10660;DHT22;5378;53.206;13.316;2022-11-21T10:37:24;4.10;99.90
10660;DHT22;5378;53.206;13.316;2022-11-21T10:40:28;4.00;99.90
10660;DHT22;5378;53.206;13.316;2022-11-21T10:43:25;3.80;99.90
10660;DHT22;5378;53.206;13.316;2022-11-21T10:46:36;3.80;99.90
10660;DHT22;5378;53.206;13.316;2022-11-21T10:49:23;3.60;99.90
10660;DHT22;5378;53.206;13.316;2022-11-21T10:52:14;3.60;99.90
10660;DHT22;5378;53.206;13.316;2022-11-21T10:55:08;3.50;99.90
10660;DHT22;5378;53.206;13.316;2022-11-21T10:57:55;3.40;99.90
10660;DHT22;5378;53.206;13.316;2022-11-21T11:00:56;3.40;99.90
10660;DHT22;5378;53.206;13.316;2022-11-21T11:03:43;3.50;99.90
10660;DHT22;5378;53.206;13.316;2022-11-21T11:06:37;3.60;99.90
10660;DHT22;5378;53.206;13.316;2022-11-21T11:09:27;3.70;99.90
10660;DHT22;5378;53.206;13.316;2022-11-21T11:12:26;3.80;99.90
10660;DHT22;5378;53.206;13.316;2022-11-21T11:15:29;3.90;99.90
10660;DHT22;5378;53.206;13.316;2022-11-21T11:18:19;4.00;99.90
10660;DHT22;5378;53.206;13.316;2022-11-21T11:21:16;4.10;99.90
10660;DHT22;5378;53.206;13.316;2022-11-21T11:24:20;4.10;99.90
10660;DHT22;5378;53.206;13.316;2022-11-21T11:27:08;4.10;99.90
10660;DHT22;5378;53.206;13.316;2022-11-21T11:30:04;4.10;99.90
10660;DHT22;5378;53.206;13.316;2022-11-21T11:32:52;3.90;99.90
10660;DHT22;5378;53.206;13.316;2022-11-21T11:35:39;3.80;99.90
10660;DHT22;5378;53.206;13.316;2022-11-21T11:38:29;3.70;99.90
10660;DHT22;5378;53.206;13.316;2022-11-21T11:41:34;3.70;99.90
10660;DHT22;5378;53.206;13.316;2022-11-21T11:44:55;3.70;99.90
10660;DHT22;5378;53.206;13.316;2022-11-21T11:48:07;3.70;99.90
10660;DHT22;5378;53.206;13.316;2022-11-21T11:50:59;3.60;99.90
10660;DHT22;5378;53.206;13.316;2022-11-21T11:53:50;3.60;99.90
10660;DHT22;5378;53.206;13.316;2022-11-21T11:56:41;3.50;99.90
10660;DHT22;5378;53.206;13.316;2022-11-21T11:59:32;3.40;99.90
10660;DHT22;5378;53.206;13.316;2022-11-21T12:02:24;3.50;99.90
10660;DHT22;5378;53.206;13.316;2022-11-21T12:05:20;3.60;99.90
10660;DHT22;5378;53.206;13.316;2022-11-21T12:08:13;3.60;99.90
10660;DHT22;5378;53.206;13.316;2022-11-21T12:11:25;3.60;99.90
10660;DHT22;5378;53.206;13.316;2022-11-21T12:14:53;3.60;99.90
10660;DHT22;5378;53.206;13.316;2022-11-21T12:18:10;3.70;99.90
10660;DHT22;5378;53.206;13.316;2022-11-21T12:21:06;3.70;99.90
10660;DHT22;5378;53.206;13.316;2022-11-21T12:23:56;3.70;99.90
10660;DHT22;5378;53.206;13.316;2022-11-21T12:26:49;3.70;99.90
10660;DHT22;5378;53.206;13.316;2022-11-21T12:29:49;3.60;99.90
10660;DHT22;5378;53.206;13.316;2022-11-21T12:32:53;3.60;99.90
10660;DHT22;5378;53.206;13.316;2022-11-21T12:36:07;3.50;99.90
10660;DHT22;5378;53.206;13.316;2022-11-21T12:39:28;3.60;99.90
10660;DHT22;5378;53.206;13.316;2022-11-21T12:42:26;3.40;99.90
10660;DHT22;5378;53.206;13.316;2022-11-21T12:45:33;3.50;99.90
10660;DHT22;5378;53.206;13.316;2022-11-21T12:48:39;3.40;99.90
10660;DHT22;5378;53.206;13.316;2022-11-21T12:52:07;3.40;99.90
10660;DHT22;5378;53.206;13.316;2022-11-21T12:55:30;3.40;99.90
10660;DHT22;5378;53.206;13.316;2022-11-21T12:58:25;3.40;99.90
10660;DHT22;5378;53.206;13.316;2022-11-21T13:01:19;3.30;99.90
10660;DHT22;5378;53.206;13.316;2022-11-21T13:04:13;3.30;99.90
10660;DHT22;5378;53.206;13.316;2022-11-21T13:07:03;3.30;99.90
10660;DHT22;5378;53.206;13.316;2022-11-21T13:09:52;3.30;99.90
10660;DHT22;5378;53.206;13.316;2022-11-21T13:12:44;3.30;99.90
10660;DHT22;5378;53.206;13.316;2022-11-21T13:15:39;3.30;99.90
10660;DHT22;5378;53.206;13.316;2022-11-21T13:18:30;3.30;99.90
10660;DHT22;5378;53.206;13.316;2022-11-21T13:21:39;3.30;99.90
10660;DHT22;5378;53.206;13.316;2022-11-21T13:24:59;3.30;99.90
10660;DHT22;5378;53.206;13.316;2022-11-21T13:27:46;3.20;99.90
10660;DHT22;5378;53.206;13.316;2022-11-21T13:30:45;3.20;99.90
10660;DHT22;5378;53.206;13.316;2022-11-21T13:33:47;3.10;99.90
10660;DHT22;5378;53.206;13.316;2022-11-21T13:36:40;3.00;99.90
10660;DHT22;5378;53.206;13.316;2022-11-21T13:39:34;3.00;99.90
10660;DHT22;5378;53.206;13.316;2022-11-21T13:42:23;3.00;99.90
10660;DHT22;5378;53.206;13.316;2022-11-21T13:45:37;2.90;99.90
10660;DHT22;5378;53.206;13.316;2022-11-21T13:48:45;2.70;99.90
10660;DHT22;5378;53.206;13.316;2022-11-21T13:51:51;2.70;99.90
10660;DHT22;5378;53.206;13.316;2022-11-21T13:55:12;2.70;99.90
10660;DHT22;5378;53.206;13.316;2022-11-21T13:58:13;2.60;99.90
10660;DHT22;5378;53.206;13.316;2022-11-21T14:01:31;2.70;99.90
10660;DHT22;5378;53.206;13.316;2022-11-21T14:04:30;2.70;99.90
10660;DHT22;5378;53.206;13.316;2022-11-21T14:07:25;2.70;99.90
10660;DHT22;5378;53.206;13.316;2022-11-21T14:10:29;2.70;99.90
10660;DHT22;5378;53.206;13.316;2022-11-21T14:13:24;2.70;99.90
10660;DHT22;5378;53.206;13.316;2022-11-21T14:16:21;2.60;99.90
10660;DHT22;5378;53.206;13.316;2022-11-21T14:19:12;2.50;99.90
10660;DHT22;5378;53.206;13.316;2022-11-21T14:21:59;2.50;99.90
10660;DHT22;5378;53.206;13.316;2022-11-21T14:24:47;2.40;99.90
10660;DHT22;5378;53.206;13.316;2022-11-21T14:27:37;2.40;99.90
10660;DHT22;5378;53.206;13.316;2022-11-21T14:30:35;2.40;99.90
10660;DHT22;5378;53.206;13.316;2022-11-21T14:33:25;2.30;99.90
10660;DHT22;5378;53.206;13.316;2022-11-21T14:36:14;2.20;99.90
10660;DHT22;5378;53.206;13.316;2022-11-21T14:39:06;2.10;99.90
10660;DHT22;5378;53.206;13.316;2022-11-21T14:42:15;2.00;99.90
10660;DHT22;5378;53.206;13.316;2022-11-21T14:45:07;2.00;99.90
10660;DHT22;5378;53.206;13.316;2022-11-21T14:47:55;2.00;99.90
10660;DHT22;5378;53.206;13.316;2022-11-21T14:50:43;2.00;99.90
10660;DHT22;5378;53.206;13.316;2022-11-21T14:53:31;1.90;99.90
10660;DHT22;5378;53.206;13.316;2022-11-21T14:56:20;1.90;99.90
10660;DHT22;5378;53.206;13.316;2022-11-21T14:59:18;1.90;99.90
10660;DHT22;5378;53.206;13.316;2022-11-21T15:02:11;1.90;99.90
10660;DHT22;5378;53.206;13.316;2022-11-21T15:05:02;1.90;99.90
10660;DHT22;5378;53.206;13.316;2022-11-21T15:07:49;1.90;99.90
10660;DHT22;5378;53.206;13.316;2022-11-21T15:10:42;2.00;99.90
10660;DHT22;5378;53.206;13.316;2022-11-21T15:13:32;2.00;99.90
10660;DHT22;5378;53.206;13.316;2022-11-21T15:16:36;1.90;99.90
10660;DHT22;5378;53.206;13.316;2022-11-21T15:19:25;1.90;99.90
10660;DHT22;5378;53.206;13.316;2022-11-21T15:22:29;1.90;99.90
10660;DHT22;5378;53.206;13.316;2022-11-21T15:25:20;1.80;99.90
10660;DHT22;5378;53.206;13.316;2022-11-21T15:28:12;1.80;99.90
10660;DHT22;5378;53.206;13.316;2022-11-21T15:31:16;1.80;99.90
10660;DHT22;5378;53.206;13.316;2022-11-21T15:34:04;1.80;99.90
10660;DHT22;5378;53.206;13.316;2022-11-21T15:37:15;1.90;99.90
10660;DHT22;5378;53.206;13.316;2022-11-21T15:40:03;2.00;99.90
10660;DHT22;5378;53.206;13.316;2022-11-21T15:42:50;2.00;99.90
10660;DHT22;5378;53.206;13.316;2022-11-21T15:45:38;2.00;99.90
10660;DHT22;5378;53.206;13.316;2022-11-21T15:48:25;2.00;99.90
10660;DHT22;5378;53.206;13.316;2022-11-21T15:51:12;2.00;99.90
10660;DHT22;5378;53.206;13.316;2022-11-21T15:54:00;1.90;99.90
10660;DHT22;5378;53.206;13.316;2022-11-21T15:56:48;1.80;99.90
10660;DHT22;5378;53.206;13.316;2022-11-21T15:59:35;1.90;99.90
10660;DHT22;5378;53.206;13.316;2022-11-21T16:02:23;1.90;99.90
10660;DHT22;5378;53.206;13.316;2022-11-21T16:05:11;2.00;99.90
10660;DHT22;5378;53.206;13.316;2022-11-21T16:07:58;2.00;99.90
10660;DHT22;5378;53.206;13.316;2022-11-21T16:10:45;1.90;99.90
10660;DHT22;5378;53.206;13.316;2022-11-21T16:13:34;1.90;99.90
10660;DHT22;5378;53.206;13.316;2022-11-21T16:16:22;1.90;99.90
10660;DHT22;5378;53.206;13.316;2022-11-21T16:19:10;1.80;99.90
10660;DHT22;5378;53.206;13.316;2022-11-21T16:21:57;1.80;99.90
10660;DHT22;5378;53.206;13.316;2022-11-21T16:24:44;1.70;99.90
10660;DHT22;5378;53.206;13.316;2022-11-21T16:27:31;1.80;99.90
10660;DHT22;5378;53.206;13.316;2022-11-21T16:30:20;1.60;99.90
10660;DHT22;5378;53.206;13.316;2022-11-21T16:33:07;1.60;99.90
10660;DHT22;5378;53.206;13.316;2022-11-21T16:35:54;1.60;99.90
10660;DHT22;5378;53.206;13.316;2022-11-21T16:38:41;1.60;99.90
10660;DHT22;5378;53.206;13.316;2022-11-21T16:41:29;1.60;99.90
10660;DHT22;5378;53.206;13.316;2022-11-21T16:44:16;1.50;99.90
10660;DHT22;5378;53.206;13.316;2022-11-21T16:47:05;1.60;99.90
10660;DHT22;5378;53.206;13.316;2022-11-21T16:49:52;1.70;99.90
10660;DHT22;5378;53.206;13.316;2022-11-21T16:52:40;1.70;99.90
10660;DHT22;5378;53.206;13.316;2022-11-21T16:55:27;1.60;99.90
10660;DHT22;5378;53.206;13.316;2022-11-21T16:58:15;1.60;99.90
10660;DHT22;5378;53.206;13.316;2022-11-21T17:01:09;1.50;99.90
10660;DHT22;5378;53.206;13.316;2022-11-21T17:03:58;1.40;99.90
10660;DHT22;5378;53.206;13.316;2022-11-21T17:06:45;1.40;99.90
10660;DHT22;5378;53.206;13.316;2022-11-21T17:09:33;1.20;99.90
10660;DHT22;5378;53.206;13.316;2022-11-21T17:12:20;1.30;99.90
10660;DHT22;5378;53.206;13.316;2022-11-21T17:15:10;1.40;99.90
10660;DHT22;5378;53.206;13.316;2022-11-21T17:17:57;1.40;99.90
10660;DHT22;5378;53.206;13.316;2022-11-21T17:20:47;1.50;99.90
10660;DHT22;5378;53.206;13.316;2022-11-21T17:23:37;1.50;99.90
10660;DHT22;5378;53.206;13.316;2022-11-21T17:26:26;1.50;99.90
10660;DHT22;5378;53.206;13.316;2022-11-21T17:29:13;1.40;99.90
10660;DHT22;5378;53.206;13.316;2022-11-21T17:32:00;1.30;99.90
10660;DHT22;5378;53.206;13.316;2022-11-21T17:34:47;1.40;99.90
10660;DHT22;5378;53.206;13.316;2022-11-21T17:37:36;1.40;99.90
10660;DHT22;5378;53.206;13.316;2022-11-21T17:40:23;1.30;99.90
10660;DHT22;5378;53.206;13.316;2022-11-21T17:43:10;1.30;99.90
10660;DHT22;5378;53.206;13.316;2022-11-21T17:45:57;1.30;99.90
10660;DHT22;5378;53.206;13.316;2022-11-21T17:48:47;1.30;99.90
10660;DHT22;5378;53.206;13.316;2022-11-21T17:51:39;1.20;99.90
10660;DHT22;5378;53.206;13.316;2022-11-21T17:54:28;1.20;99.90
10660;DHT22;5378;53.206;13.316;2022-11-21T17:57:15;1.20;99.90
10660;DHT22;5378;53.206;13.316;2022-11-21T18:00:02;1.20;99.90
10660;DHT22;5378;53.206;13.316;2022-11-21T18:02:55;1.20;99.90
10660;DHT22;5378;53.206;13.316;2022-11-21T18:05:42;1.20;99.90
10660;DHT22;5378;53.206;13.316;2022-11-21T18:08:33;1.30;99.90
10660;DHT22;5378;53.206;13.316;2022-11-21T18:11:22;1.30;99.90
10660;DHT22;5378;53.206;13.316;2022-11-21T18:14:10;1.30;99.90
10660;DHT22;5378;53.206;13.316;2022-11-21T18:16:58;1.20;99.90